Time;durP1;ratioP1;P1;durP2;ratioP2;P2;SDS_P1;SDS_P2;PMS_P1;PMS_P2;Temp;Humidity;BMP_temperature;BMP_pressure;BME280_temperature;BME280_humidity;BME280_pressure;Samples;Min_cycle;Max_cycle;Signal;HPM_P1;HPM_P2
2021/04/04 00:00:56;;;;;;;18.33;6.80;;;;;;;6.66;58.33;101312.88;5103380;28;20890;-60
2021/04/04 00:03:23;;;;;;;16.03;6.70;;;;;;;6.74;58.05;101314.16;5099521;28;20603;-60
2021/04/04 00:05:49;;;;;;;16.53;6.83;;;;;;;6.60;58.29;101312.31;5083262;28;20482;-60
2021/04/04 00:08:16;;;;;;;13.23;6.63;;;;;;;6.53;57.92;101308.28;5083589;28;20484;-60
2021/04/04 00:10:42;;;;;;;20.13;6.00;;;;;;;6.93;56.98;101311.28;5093234;28;20511;-59
2021/04/04 00:13:08;;;;;;;22.93;5.77;;;;;;;6.76;56.79;101304.28;5104593;28;20435;-60
2021/04/04 00:15:34;;;;;;;16.37;6.23;;;;;;;6.92;56.37;101316.66;5102484;28;20512;-60
2021/04/04 00:18:00;;;;;;;13.73;5.30;;;;;;;7.01;55.98;101308.16;5103579;28;20439;-60
2021/04/04 00:20:27;;;;;;;18.13;6.53;;;;;;;6.90;56.32;101314.09;5093017;28;21107;-60
2021/04/04 00:22:54;;;;;;;14.57;6.20;;;;;;;6.87;56.46;101314.28;5085623;28;20448;-60
2021/04/04 00:25:20;;;;;;;15.87;6.20;;;;;;;6.79;56.54;101316.56;5084115;28;20472;-59
2021/04/04 00:27:46;;;;;;;16.13;6.70;;;;;;;6.94;56.13;101314.78;5083312;28;20497;-60
2021/04/04 00:30:15;;;;;;;18.33;5.67;;;;;;;6.85;56.26;101312.66;5086404;28;20504;-59
2021/04/04 00:32:42;;;;;;;15.63;5.70;;;;;;;7.02;55.80;101309.03;5103534;28;20447;-59
2021/04/04 00:35:11;;;;;;;12.83;5.57;;;;;;;7.07;55.91;101304.28;5100812;28;20460;-60
2021/04/04 00:37:38;;;;;;;13.87;4.80;;;;;;;6.99;55.20;101302.06;5103804;28;20431;-60
2021/04/04 00:40:08;;;;;;;22.77;6.60;;;;;;;7.11;55.42;101311.13;5099971;28;20522;-60
2021/04/04 00:42:35;;;;;;;10.93;6.10;;;;;;;7.11;55.73;101305.81;5083508;28;20436;-60
2021/04/04 00:45:01;;;;;;;15.90;6.50;;;;;;;7.27;55.31;101311.03;5101656;28;20501;-60
2021/04/04 00:47:27;;;;;;;13.80;4.70;;;;;;;7.00;56.55;101301.13;5090465;28;20476;-60
2021/04/04 00:49:53;;;;;;;16.43;5.47;;;;;;;7.03;55.64;101298.28;5083283;28;20456;-60
2021/04/04 00:52:20;;;;;;;22.53;6.30;;;;;;;6.92;55.80;101295.41;5092618;28;20570;-59
2021/04/04 00:54:47;;;;;;;23.77;6.37;;;;;;;7.12;55.27;101297.72;5103256;28;20447;-60
2021/04/04 00:57:13;;;;;;;14.17;6.40;;;;;;;7.05;55.78;101298.19;5101009;28;20482;-60
2021/04/04 00:59:39;;;;;;;13.60;5.97;;;;;;;7.16;55.79;101295.75;5102743;28;20468;-59
2021/04/04 01:02:06;;;;;;;22.73;6.30;;;;;;;7.15;55.61;101294.00;5096398;28;20511;-59
2021/04/04 01:04:32;;;;;;;11.97;5.67;;;;;;;7.13;55.34;101290.59;5096441;28;20503;-60
2021/04/04 01:06:58;;;;;;;12.10;6.00;;;;;;;7.25;55.37;101297.00;5096100;28;21063;-60
2021/04/04 01:09:24;;;;;;;16.07;6.63;;;;;;;7.43;55.19;101293.22;5096219;28;20451;-59
2021/04/04 01:11:55;;;;;;;17.33;5.87;;;;;;;7.45;54.75;101293.97;5100283;28;20470;-60
2021/04/04 01:14:27;;;;;;;19.73;6.00;;;;;;;7.39;54.97;101297.00;5102889;28;20485;-60
2021/04/04 01:16:57;;;;;;;16.43;5.57;;;;;;;7.41;55.05;101291.56;5095856;28;21030;-60
2021/04/04 01:19:40;;;;;;;11.93;5.80;;;;;;;7.42;55.14;101294.16;5090251;28;20454;-60
2021/04/04 01:22:15;;;;;;;14.17;6.27;;;;;;;7.39;55.10;101296.16;5099542;28;20475;-60
2021/04/04 01:24:48;;;;;;;17.60;5.43;;;;;;;7.52;54.74;101292.63;5102422;28;20978;-60
2021/04/04 01:27:19;;;;;;;12.13;4.43;;;;;;;7.46;54.67;101292.16;5100678;28;20482;-60
2021/04/04 01:29:47;;;;;;;11.30;5.07;;;;;;;7.50;54.44;101286.56;5101726;28;20447;-60
2021/04/04 01:32:13;;;;;;;11.60;5.37;;;;;;;7.25;55.02;101291.66;5101317;28;20502;-60
2021/04/04 01:34:39;;;;;;;10.73;4.47;;;;;;;7.40;54.54;101292.53;5089752;28;20444;-59
2021/04/04 01:37:09;;;;;;;19.10;6.40;;;;;;;7.37;54.74;101290.06;5083120;28;20506;-59
2021/04/04 01:39:39;;;;;;;17.57;5.30;;;;;;;7.28;55.07;101291.50;5083416;28;20467;-60
2021/04/04 01:42:07;;;;;;;17.60;5.23;;;;;;;7.29;55.41;101285.19;5101666;28;20497;-60
2021/04/04 01:44:34;;;;;;;16.23;5.50;;;;;;;7.38;54.99;101297.09;5100267;28;20474;-60
2021/04/04 01:47:01;;;;;;;11.90;5.10;;;;;;;7.36;54.57;101294.53;5101689;28;20474;-60
2021/04/04 01:49:28;;;;;;;13.77;5.00;;;;;;;7.43;54.63;101293.22;5087807;28;20463;-59
2021/04/04 01:51:54;;;;;;;13.23;5.40;;;;;;;7.56;54.53;101295.09;5080833;28;20488;-60
2021/04/04 01:54:21;;;;;;;22.03;5.33;;;;;;;7.71;53.83;101296.81;5082864;28;20456;-60
2021/04/04 01:56:48;;;;;;;13.10;4.90;;;;;;;7.73;54.16;101294.91;5085613;28;20533;-60
2021/04/04 01:59:15;;;;;;;17.40;6.67;;;;;;;7.75;54.22;101295.66;5097704;28;20476;-60
2021/04/04 02:01:44;;;;;;;14.13;5.63;;;;;;;7.86;53.59;101290.53;5081371;28;20475;-59
2021/04/04 02:04:12;;;;;;;11.57;5.23;;;;;;;7.93;53.62;101293.63;5081612;28;20443;-60
2021/04/04 02:06:39;;;;;;;12.37;5.00;;;;;;;7.78;53.93;101292.81;5080845;28;20503;-60
2021/04/04 02:09:07;;;;;;;12.97;5.20;;;;;;;7.63;54.36;101293.78;5080875;28;20456;-60
2021/04/04 02:11:34;;;;;;;15.13;5.50;;;;;;;7.39;55.27;101285.50;5080396;28;20484;-59
2021/04/04 02:14:05;;;;;;;9.17;4.90;;;;;;;7.40;55.20;101284.56;5092233;28;20436;-60
2021/04/04 02:16:32;;;;;;;10.83;5.60;;;;;;;7.59;54.88;101273.63;5101819;28;20474;-60
2021/04/04 02:18:59;;;;;;;13.47;5.37;;;;;;;7.60;54.52;101268.19;5099642;28;20483;-60
2021/04/04 02:21:27;;;;;;;12.03;5.20;;;;;;;7.47;55.09;101270.78;5100222;28;21078;-59
2021/04/04 02:23:54;;;;;;;16.30;4.93;;;;;;;7.46;54.70;101266.38;5102242;28;20436;-60
2021/04/04 02:26:21;;;;;;;13.67;4.63;;;;;;;7.56;54.27;101269.34;5100530;28;20503;-60
2021/04/04 02:28:50;;;;;;;15.03;4.37;;;;;;;7.60;54.17;101264.69;5100755;28;20457;-59
2021/04/04 02:31:17;;;;;;;8.67;3.90;;;;;;;7.72;53.88;101259.47;5100197;28;20655;-60
2021/04/04 02:33:49;;;;;;;17.47;4.53;;;;;;;7.64;53.55;101259.06;5101541;28;20916;-60
2021/04/04 02:36:17;;;;;;;12.37;5.10;;;;;;;7.52;52.66;101262.50;5101064;28;20540;-60
2021/04/04 02:38:48;;;;;;;8.10;3.97;;;;;;;7.52;53.25;101258.03;5100812;28;20485;-60
2021/04/04 02:41:14;;;;;;;12.77;4.50;;;;;;;7.65;52.41;101251.94;5098004;28;20520;-60
2021/04/04 02:43:42;;;;;;;10.40;3.60;;;;;;;7.53;52.37;101257.09;5081673;28;20428;-59
2021/04/04 02:46:12;;;;;;;7.17;3.83;;;;;;;7.66;51.62;101256.31;5090228;28;20479;-59
2021/04/04 02:48:42;;;;;;;10.80;3.90;;;;;;;7.47;52.87;101253.97;5100354;28;20451;-60
2021/04/04 02:51:09;;;;;;;12.70;4.37;;;;;;;7.62;52.96;101261.00;5098701;28;20544;-60
2021/04/04 02:53:40;;;;;;;12.80;5.40;;;;;;;7.45;52.93;101253.22;5101393;28;20474;-59
2021/04/04 02:56:07;;;;;;;10.30;4.57;;;;;;;7.46;53.03;101246.91;5100930;28;20467;-60
2021/04/04 02:58:35;;;;;;;12.77;4.63;;;;;;;7.51;52.88;101245.66;5101079;28;20450;-59
2021/04/04 03:01:03;;;;;;;11.10;3.90;;;;;;;7.58;52.81;101256.78;5097323;28;20475;-60
2021/04/04 03:03:31;;;;;;;10.23;4.07;;;;;;;7.64;52.38;101256.41;5100799;28;20443;-59
2021/04/04 03:05:58;;;;;;;11.23;3.53;;;;;;;7.78;52.08;101249.34;5100482;28;20466;-59
2021/04/04 03:08:25;;;;;;;16.50;3.93;;;;;;;7.73;51.95;101250.50;5100855;28;20867;-60
2021/04/04 03:10:52;;;;;;;14.57;4.80;;;;;;;7.87;51.77;101254.94;5098577;28;21002;-59
2021/04/04 03:13:20;;;;;;;9.13;3.43;;;;;;;7.88;51.04;101248.69;5101608;28;20438;-60
2021/04/04 03:15:47;;;;;;;9.90;3.43;;;;;;;8.02;51.01;101250.44;5087706;28;20578;-60
2021/04/04 03:18:14;;;;;;;13.60;3.93;;;;;;;8.00;51.17;101243.50;5084258;28;20466;-59
2021/04/04 03:20:40;;;;;;;20.60;4.40;;;;;;;8.09;50.72;101242.91;5088464;28;20470;-59
2021/04/04 03:23:07;;;;;;;9.23;4.00;;;;;;;7.99;51.32;101250.63;5104198;28;20447;-60
2021/04/04 03:25:34;;;;;;;5.53;3.47;;;;;;;8.01;51.24;101242.56;5104451;28;20490;-60
2021/04/04 03:28:01;;;;;;;8.40;3.17;;;;;;;7.72;50.94;101245.28;5105390;28;20461;-60
2021/04/04 03:30:43;;;;;;;17.70;3.97;;;;;;;7.66;51.14;101245.69;5083060;28;20482;-60
2021/04/04 03:33:11;;;;;;;10.20;4.00;;;;;;;7.84;50.94;101240.97;5090316;28;20531;-60
2021/04/04 03:35:39;;;;;;;17.87;4.90;;;;;;;7.81;51.01;101251.81;5104558;28;20467;-60
2021/04/04 03:38:07;;;;;;;12.83;4.13;;;;;;;7.82;51.07;101238.41;5101786;28;20517;-59
2021/04/04 03:40:33;;;;;;;12.20;3.50;;;;;;;7.85;51.32;101238.22;5104109;28;20458;-59
2021/04/04 03:43:03;;;;;;;13.63;3.80;;;;;;;7.90;51.17;101230.78;5101295;28;20432;-60
2021/04/04 03:45:30;;;;;;;16.97;3.77;;;;;;;7.90;51.42;101238.78;5083517;28;20496;-60
2021/04/04 03:47:57;;;;;;;13.17;4.00;;;;;;;7.91;51.27;101223.66;5085588;28;20455;-60
2021/04/04 03:50:24;;;;;;;14.33;4.60;;;;;;;7.79;51.59;101235.94;5083050;28;20617;-59
2021/04/04 03:52:51;;;;;;;11.97;3.67;;;;;;;7.78;51.65;101228.91;5085297;28;20866;-60
2021/04/04 03:55:21;;;;;;;11.03;3.83;;;;;;;7.88;51.39;101226.50;5083804;28;20440;-60
2021/04/04 03:57:48;;;;;;;16.67;4.17;;;;;;;7.92;51.60;101231.53;5083791;28;20463;-60
2021/04/04 04:00:17;;;;;;;13.47;4.80;;;;;;;7.68;52.08;101231.31;5062950;28;20464;-59
2021/04/04 04:02:45;;;;;;;13.40;4.43;;;;;;;7.58;52.52;101230.19;5097290;28;20450;-58
2021/04/04 04:05:13;;;;;;;12.73;4.80;;;;;;;7.59;52.44;101228.41;5103182;28;20455;-60
2021/04/04 04:07:39;;;;;;;11.60;3.97;;;;;;;7.57;52.63;101227.59;5088178;28;20482;-60
2021/04/04 04:10:07;;;;;;;13.83;4.20;;;;;;;7.48;53.02;101221.06;5082477;28;20479;-59
2021/04/04 04:12:33;;;;;;;9.63;3.80;;;;;;;7.42;53.51;101222.31;5097817;28;20487;-60
2021/04/04 04:15:00;;;;;;;14.33;5.40;;;;;;;7.47;53.48;101222.88;5103564;28;20447;-59
2021/04/04 04:17:27;;;;;;;14.77;4.60;;;;;;;7.43;53.49;101217.84;5090885;28;20472;-60
2021/04/04 04:19:54;;;;;;;8.57;4.07;;;;;;;7.62;52.97;101209.53;5099692;28;20443;-61
2021/04/04 04:22:21;;;;;;;19.70;4.20;;;;;;;7.59;53.29;101213.28;5092828;28;20515;-60
2021/04/04 04:24:49;;;;;;;8.80;3.67;;;;;;;7.56;53.47;101212.63;5083105;28;20832;-60
2021/04/04 04:27:16;;;;;;;10.30;4.33;;;;;;;7.43;53.48;101215.19;5082880;28;20483;-59
2021/04/04 04:29:43;;;;;;;9.90;4.40;;;;;;;7.50;53.67;101213.88;5083507;28;20451;-59
2021/04/04 04:32:10;;;;;;;13.43;4.00;;;;;;;7.49;53.55;101220.97;5083116;28;20511;-60
2021/04/04 04:34:36;;;;;;;12.20;4.40;;;;;;;7.22;54.08;101209.41;5090435;28;20979;-59
2021/04/04 04:37:03;;;;;;;16.53;4.57;;;;;;;7.34;53.70;101217.50;5102569;28;20541;-59
2021/04/04 04:39:29;;;;;;;12.37;4.40;;;;;;;7.55;53.34;101214.41;5099619;28;20467;-60
2021/04/04 04:41:56;;;;;;;14.00;4.93;;;;;;;7.58;53.17;101214.22;5082720;28;20472;-60
2021/04/04 04:44:25;;;;;;;16.23;4.07;;;;;;;7.49;53.08;101213.00;5084249;28;20450;-60
2021/04/04 04:46:51;;;;;;;10.70;4.00;;;;;;;7.23;53.67;101205.81;5090964;28;20505;-59
2021/04/04 04:49:18;;;;;;;14.03;3.73;;;;;;;7.36;53.41;101220.06;5101730;28;20439;-59
2021/04/04 04:51:46;;;;;;;10.47;3.70;;;;;;;7.14;53.62;101202.75;5102410;28;20846;-59
2021/04/04 04:54:13;;;;;;;16.37;4.30;;;;;;;7.30;53.31;101210.63;5102804;28;20427;-59
2021/04/04 04:56:40;;;;;;;14.20;4.10;;;;;;;7.19;53.16;101205.13;5102749;28;20904;-60
2021/04/04 04:59:07;;;;;;;9.77;3.50;;;;;;;7.22;53.53;101199.63;5102394;28;20455;-59
2021/04/04 05:01:38;;;;;;;12.43;3.60;;;;;;;7.32;52.43;101207.88;5082297;28;20977;-59
2021/04/04 05:04:04;;;;;;;13.03;4.10;;;;;;;7.28;52.59;101206.38;5082610;28;20444;-59
2021/04/04 05:06:30;;;;;;;16.83;4.60;;;;;;;7.31;52.27;101207.03;5101803;28;21557;-60
2021/04/04 05:08:59;;;;;;;15.87;4.37;;;;;;;7.22;52.18;101210.28;5102410;28;20451;-59
2021/04/04 05:11:26;;;;;;;10.00;3.90;;;;;;;7.40;51.74;101205.59;5099911;28;20479;-60
2021/04/04 05:13:53;;;;;;;10.43;3.47;;;;;;;7.38;51.68;101204.84;5088682;28;20479;-59
2021/04/04 05:16:20;;;;;;;17.10;4.30;;;;;;;7.54;51.54;101204.72;5079875;28;20528;-60
2021/04/04 05:18:47;;;;;;;13.27;3.80;;;;;;;7.60;51.25;101203.47;5080804;28;20451;-59
2021/04/04 05:21:19;;;;;;;13.70;3.80;;;;;;;7.57;50.95;101201.00;5089489;28;20500;-60
2021/04/04 05:23:45;;;;;;;9.37;3.47;;;;;;;7.67;50.33;101200.34;5101914;28;20902;-60
2021/04/04 05:26:14;;;;;;;10.23;3.00;;;;;;;7.70;50.34;101201.94;5081025;28;20972;-59
2021/04/04 05:28:41;;;;;;;10.23;3.13;;;;;;;7.63;50.81;101201.47;5082582;28;20492;-60
2021/04/04 05:31:08;;;;;;;10.63;3.90;;;;;;;7.32;51.09;101191.91;5080912;28;20491;-59
2021/04/04 05:33:39;;;;;;;11.40;3.53;;;;;;;7.54;50.70;101202.06;5081987;28;20444;-59
2021/04/04 05:36:06;;;;;;;18.90;4.13;;;;;;;7.41;50.99;101196.66;5093964;28;20479;-60
2021/04/04 05:38:32;;;;;;;13.03;4.73;;;;;;;7.47;50.97;101198.94;5081867;28;20587;-59
2021/04/04 05:41:01;;;;;;;16.30;3.77;;;;;;;7.54;50.67;101188.75;5080890;28;20511;-60
2021/04/04 05:43:33;;;;;;;9.37;3.80;;;;;;;7.62;50.92;101191.78;5082021;28;20441;-59
2021/04/04 05:46:05;;;;;;;10.37;4.67;;;;;;;7.65;50.43;101177.41;5080155;28;20502;-59
2021/04/04 05:48:42;;;;;;;12.03;3.57;;;;;;;7.60;50.72;101196.34;5087290;28;20473;-60
2021/04/04 05:51:20;;;;;;;20.80;4.50;;;;;;;7.66;50.56;101195.94;5101074;28;20474;-60
2021/04/04 05:53:57;;;;;;;11.53;3.93;;;;;;;7.50;51.48;101189.91;5084960;28;20455;-59
2021/04/04 05:56:26;;;;;;;10.77;4.97;;;;;;;7.75;50.71;101180.34;5081517;28;20855;-60
2021/04/04 05:58:58;;;;;;;9.23;3.93;;;;;;;7.62;51.87;101191.78;5080945;28;20498;-59
2021/04/04 06:01:50;;;;;;;10.03;3.90;;;;;;;7.69;50.66;101182.47;5083850;28;20479;-59
2021/04/04 06:04:40;;;;;;;11.27;4.80;;;;;;;8.03;50.36;101184.72;5084261;28;20444;-60
2021/04/04 06:07:32;;;;;;;18.23;6.50;;;;;;;7.78;50.42;101181.00;5080328;28;20492;-60
2021/04/04 06:10:04;;;;;;;10.83;5.03;;;;;;;7.81;51.03;101180.81;5080695;28;20448;-60
2021/04/04 06:12:44;;;;;;;9.83;4.33;;;;;;;8.16;49.39;101177.63;5100153;28;20479;-60
2021/04/04 06:15:17;;;;;;;10.17;3.90;;;;;;;8.29;49.81;101177.66;5100898;28;20457;-60
2021/04/04 06:17:52;;;;;;;8.00;4.17;;;;;;;8.10;50.11;101178.88;5099887;28;20558;-61
2021/04/04 06:20:30;;;;;;;8.73;3.60;;;;;;;8.19;49.28;101177.41;5083344;28;20523;-60
2021/04/04 06:23:05;;;;;;;11.30;4.20;;;;;;;8.03;50.12;101174.91;5093479;28;20944;-60
2021/04/04 06:25:43;;;;;;;12.43;3.77;;;;;;;7.57;51.53;101180.59;5059188;28;20496;-60
2021/04/04 06:28:16;;;;;;;15.37;3.67;;;;;;;7.59;52.13;101183.16;5093968;28;20446;-61
2021/04/04 06:30:50;;;;;;;11.53;2.90;;;;;;;7.78;51.20;101183.66;5085769;28;20551;-57
2021/04/04 06:33:24;;;;;;;11.03;3.07;;;;;;;7.93;50.92;101181.78;5081995;28;20465;-58
2021/04/04 06:36:06;;;;;;;7.60;4.97;;;;;;;7.97;51.22;101185.09;5085442;28;20467;-58
2021/04/04 06:39:01;;;;;;;13.10;3.30;;;;;;;8.14;50.97;101184.00;5078280;28;20432;-59
2021/04/04 06:42:01;;;;;;;12.87;3.30;;;;;;;8.13;51.03;101196.47;5023967;28;20556;-59
2021/04/04 06:44:39;;;;;;;9.23;2.60;;;;;;;8.26;51.01;101194.72;5075531;28;20561;-59
2021/04/04 06:47:10;;;;;;;6.77;3.23;;;;;;;8.45;51.02;101183.72;5076282;28;20479;-58
2021/04/04 06:49:46;;;;;;;11.10;3.20;;;;;;;8.55;50.03;101188.41;5076644;28;20475;-59
2021/04/04 06:52:31;;;;;;;5.20;3.40;;;;;;;8.58;50.29;101188.19;5084367;28;20554;-59
2021/04/04 06:55:04;;;;;;;8.60;3.50;;;;;;;9.15;48.55;101181.56;5097334;28;20543;-60
2021/04/04 06:57:59;;;;;;;12.23;4.83;;;;;;;9.41;47.72;101188.59;5080503;28;20489;-60
2021/04/04 07:00:29;;;;;;;11.30;3.77;;;;;;;9.46;48.25;101188.25;5076598;28;20490;-60
2021/04/04 07:03:05;;;;;;;8.17;3.30;;;;;;;9.60;47.52;101181.94;5102118;28;20427;-60
2021/04/04 07:05:35;;;;;;;9.17;3.60;;;;;;;10.53;45.39;101183.97;5081200;28;20475;-58
2021/04/04 07:08:33;;;;;;;7.43;2.90;;;;;;;10.74;44.82;101179.66;5081759;28;20486;-60
2021/04/04 07:11:07;;;;;;;7.03;3.50;;;;;;;11.07;44.05;101177.09;5080908;28;21107;-60
2021/04/04 07:14:07;;;;;;;16.97;3.77;;;;;;;10.96;44.09;101182.47;5083560;28;20493;-59
2021/04/04 07:17:00;;;;;;;9.20;3.20;;;;;;;9.84;47.34;101178.41;5073061;28;20495;-60
2021/04/04 07:19:39;;;;;;;8.40;3.37;;;;;;;10.21;46.77;101191.69;5084391;28;20456;-58
2021/04/04 07:22:19;;;;;;;8.67;3.67;;;;;;;10.07;46.86;101184.72;5074063;28;20483;-60
2021/04/04 07:25:03;;;;;;;10.47;2.80;;;;;;;9.51;48.83;101195.91;5083293;28;20440;-59
2021/04/04 07:27:42;;;;;;;5.63;2.67;;;;;;;9.47;49.42;101187.28;5063439;28;20492;-59
2021/04/04 07:30:33;;;;;;;8.43;3.00;;;;;;;9.38;49.84;101182.63;5052388;28;20977;-59
2021/04/04 07:33:04;;;;;;;4.03;2.30;;;;;;;9.32;49.91;101186.59;5060555;28;20523;-60
2021/04/04 07:35:38;;;;;;;9.20;2.67;;;;;;;9.82;49.32;101186.53;5061524;28;20463;-60
2021/04/04 07:38:09;;;;;;;8.63;2.43;;;;;;;9.46;50.00;101184.72;5062756;28;20450;-59
2021/04/04 07:40:41;;;;;;;13.20;2.53;;;;;;;9.52;50.22;101189.63;5064238;28;20477;-59
2021/04/04 07:43:09;;;;;;;6.87;3.10;;;;;;;9.02;51.50;101197.59;5070656;28;20444;-59
2021/04/04 07:45:38;;;;;;;8.40;3.60;;;;;;;8.97;52.02;101197.06;5061277;28;20483;-60
2021/04/04 07:48:14;;;;;;;7.40;2.83;;;;;;;8.29;55.76;101196.31;5063444;28;20498;-59
2021/04/04 07:50:43;;;;;;;11.70;3.43;;;;;;;8.19;56.60;101197.88;5053567;28;20504;-59
2021/04/04 07:53:18;;;;;;;6.77;3.73;;;;;;;8.24;56.97;101201.09;5060533;28;21018;-58
2021/04/04 07:55:50;;;;;;;5.60;3.20;;;;;;;8.37;57.58;101193.13;5064137;28;20870;-59
2021/04/04 07:58:22;;;;;;;7.90;4.00;;;;;;;8.72;57.71;101195.25;5063440;28;20429;-59
2021/04/04 08:00:54;;;;;;;6.60;3.80;;;;;;;9.17;56.56;101196.53;5060623;28;20493;-60
2021/04/04 08:03:23;;;;;;;7.07;3.07;;;;;;;9.73;54.33;101197.91;5064010;28;20491;-58
2021/04/04 08:05:51;;;;;;;12.97;4.07;;;;;;;10.77;51.84;101199.09;5067070;28;20522;-59
2021/04/04 08:08:21;;;;;;;8.47;3.57;;;;;;;10.46;51.63;101193.41;5061787;28;20495;-60
2021/04/04 08:10:53;;;;;;;7.67;3.10;;;;;;;10.13;52.82;101198.47;5061922;28;20522;-59
2021/04/04 08:13:22;;;;;;;10.10;3.70;;;;;;;10.34;52.31;101197.88;5060822;28;20957;-59
2021/04/04 08:15:54;;;;;;;5.60;3.67;;;;;;;10.20;52.01;101193.53;5066619;28;20493;-59
2021/04/04 08:18:20;;;;;;;10.10;3.80;;;;;;;9.75;53.11;101187.94;5061169;28;20499;-59
2021/04/04 08:20:49;;;;;;;3.77;2.50;;;;;;;8.82;56.09;101191.00;5064359;28;20468;-58
2021/04/04 08:23:23;;;;;;;7.10;2.77;;;;;;;9.14;55.64;101196.72;5059589;28;20441;-60
2021/04/04 08:25:51;;;;;;;10.27;4.23;;;;;;;9.07;56.08;101186.59;5062754;28;20502;-59
2021/04/04 08:28:24;;;;;;;5.87;2.73;;;;;;;9.37;55.09;101192.44;5060292;28;20441;-59
2021/04/04 08:30:54;;;;;;;4.77;2.73;;;;;;;8.99;56.20;101193.34;5061267;28;20501;-58
2021/04/04 08:33:23;;;;;;;8.00;3.50;;;;;;;8.99;56.81;101190.66;5063902;28;20444;-59
2021/04/04 08:35:53;;;;;;;6.03;2.87;;;;;;;9.18;56.25;101194.69;5063086;28;20486;-60
2021/04/04 08:38:23;;;;;;;6.80;2.97;;;;;;;9.34;55.91;101192.66;5059323;28;20464;-59
2021/04/04 08:40:50;;;;;;;6.90;3.60;;;;;;;9.29;56.33;101193.94;5060295;28;20530;-58
2021/04/04 08:43:17;;;;;;;6.80;3.10;;;;;;;9.45;55.33;101193.72;5062449;28;20445;-59
2021/04/04 08:45:50;;;;;;;7.03;3.50;;;;;;;9.93;54.48;101189.28;5061496;28;20487;-59
2021/04/04 08:48:19;;;;;;;7.73;4.00;;;;;;;10.41;52.60;101192.91;5060914;28;20455;-59
2021/04/04 08:50:47;;;;;;;10.57;3.37;;;;;;;10.72;51.21;101202.13;5060790;28;20487;-60
2021/04/04 08:53:23;;;;;;;5.20;2.90;;;;;;;10.96;49.89;101202.03;5061467;28;20958;-59
2021/04/04 08:55:52;;;;;;;4.67;2.83;;;;;;;10.53;50.31;101198.16;5060004;28;20851;-59
2021/04/04 08:58:20;;;;;;;7.43;2.60;;;;;;;10.35;50.65;101184.38;5061869;28;20441;-59
2021/04/04 09:00:51;;;;;;;6.23;3.10;;;;;;;10.93;48.76;101187.06;5060206;28;20487;-59
2021/04/04 09:03:20;;;;;;;5.63;2.70;;;;;;;10.86;48.91;101182.31;5063994;28;20822;-59
2021/04/04 09:05:47;;;;;;;7.53;2.77;;;;;;;10.36;50.40;101180.75;5060016;28;20512;-59
2021/04/04 09:08:15;;;;;;;4.70;2.40;;;;;;;9.38;52.68;101188.78;5060644;28;20488;-59
2021/04/04 09:10:44;;;;;;;4.30;2.50;;;;;;;9.00;54.38;101187.03;5057670;28;20457;-58
2021/04/04 09:13:13;;;;;;;10.17;4.10;;;;;;;9.57;53.24;101187.47;5060655;28;20498;-59
2021/04/04 09:15:44;;;;;;;7.07;4.00;;;;;;;9.44;53.02;101179.50;5060626;28;20499;-59
2021/04/04 09:18:11;;;;;;;8.80;3.40;;;;;;;9.15;54.06;101176.22;5065380;28;20925;-59
2021/04/04 09:20:40;;;;;;;9.40;3.20;;;;;;;9.37;53.27;101179.09;5061274;28;20458;-58
2021/04/04 09:23:07;;;;;;;12.90;3.70;;;;;;;9.42;53.72;101184.94;5060992;28;20452;-59
2021/04/04 09:25:36;;;;;;;9.37;3.63;;;;;;;8.94;54.39;101179.47;5060131;28;20469;-60
2021/04/04 09:28:07;;;;;;;5.30;3.37;;;;;;;9.65;53.64;101192.25;5068034;28;20448;-60
2021/04/04 09:30:39;;;;;;;7.63;3.07;;;;;;;9.99;51.80;101177.28;5060671;28;20469;-58
2021/04/04 09:33:07;;;;;;;4.83;3.00;;;;;;;9.87;51.13;101184.38;5063774;28;20531;-59
2021/04/04 09:35:34;;;;;;;8.00;2.83;;;;;;;9.70;52.00;101176.75;5060685;28;20477;-59
2021/04/04 09:38:02;;;;;;;7.60;2.80;;;;;;;9.72;52.39;101169.47;5056002;28;20440;-59
2021/04/04 09:40:30;;;;;;;6.57;3.07;;;;;;;9.40;53.70;101172.69;5056224;28;20476;-59
2021/04/04 09:43:05;;;;;;;5.60;2.77;;;;;;;9.66;52.42;101165.44;5059870;28;20448;-59
2021/04/04 09:45:31;;;;;;;6.27;3.03;;;;;;;10.02;51.15;101169.03;5058932;28;20468;-59
2021/04/04 09:47:59;;;;;;;4.20;2.50;;;;;;;9.23;53.24;101171.22;5055190;28;20488;-59
2021/04/04 09:50:28;;;;;;;5.60;2.50;;;;;;;9.68;52.39;101163.50;5062336;28;20547;-59
2021/04/04 09:52:55;;;;;;;3.57;2.90;;;;;;;9.37;52.81;101170.22;5072836;28;20476;-59
2021/04/04 09:55:22;;;;;;;8.03;3.17;;;;;;;9.43;52.73;101167.13;5052224;28;20489;-59
2021/04/04 09:57:51;;;;;;;6.07;3.63;;;;;;;9.24;53.34;101172.94;5055445;28;20449;-59
2021/04/04 10:00:25;;;;;;;6.77;3.63;;;;;;;9.36;52.96;101165.88;5068113;28;20532;-59
2021/04/04 10:02:53;;;;;;;9.47;3.43;;;;;;;9.50;53.08;101160.38;5060853;28;20804;-59
2021/04/04 10:05:27;;;;;;;4.53;2.60;;;;;;;8.75;54.38;101169.22;5075215;28;20471;-59
2021/04/04 10:07:53;;;;;;;7.60;3.50;;;;;;;8.92;54.61;101172.53;5060131;28;20494;-59
2021/04/04 10:10:30;;;;;;;7.80;3.50;;;;;;;8.24;56.69;101167.28;5079088;28;20462;-59
2021/04/04 10:12:57;;;;;;;7.50;3.33;;;;;;;8.44;56.52;101171.31;5061753;28;20484;-58
2021/04/04 10:15:24;;;;;;;6.13;3.30;;;;;;;8.77;55.72;101161.97;5059313;28;20464;-58
2021/04/04 10:17:55;;;;;;;9.63;4.00;;;;;;;8.55;56.81;101165.25;5055959;28;20469;-58
2021/04/04 10:20:31;;;;;;;13.60;5.23;;;;;;;8.42;57.56;101161.69;5056095;28;20465;-60
2021/04/04 10:22:58;;;;;;;10.70;3.90;;;;;;;8.15;58.59;101157.25;5057165;28;20464;-59
2021/04/04 10:25:24;;;;;;;6.10;3.13;;;;;;;8.23;58.81;101152.28;5058169;28;20456;-59
2021/04/04 10:27:58;;;;;;;8.50;3.67;;;;;;;8.29;58.87;101151.84;5059813;28;20777;-60
2021/04/04 10:30:28;;;;;;;6.60;3.00;;;;;;;8.06;59.48;101147.25;5057518;28;20536;-60
2021/04/04 10:32:54;;;;;;;6.93;3.50;;;;;;;7.95;60.53;101147.06;5060301;28;21026;-63
2021/04/04 10:35:32;;;;;;;6.53;5.07;;;;;;;8.26;59.62;101151.22;5070863;28;20452;-58
2021/04/04 10:38:03;;;;;;;12.57;4.43;;;;;;;8.72;58.40;101150.78;5058825;28;20495;-59
2021/04/04 10:40:44;;;;;;;7.33;3.90;;;;;;;8.97;57.31;101141.03;5062520;28;20472;-62
2021/04/04 10:43:10;;;;;;;7.83;4.30;;;;;;;8.50;59.01;101145.22;5058392;28;20480;-62
2021/04/04 10:45:37;;;;;;;10.47;3.83;;;;;;;8.71;58.25;101142.88;5055033;28;20472;-63
2021/04/04 10:48:07;;;;;;;7.00;4.43;;;;;;;8.88;57.67;101136.38;5059872;28;20433;-60
2021/04/04 10:50:34;;;;;;;6.93;4.77;;;;;;;8.76;57.80;101136.25;5061223;28;20483;-62
2021/04/04 10:53:01;;;;;;;10.33;4.40;;;;;;;9.07;57.07;101133.25;5049833;28;20485;-61
2021/04/04 10:55:28;;;;;;;6.40;4.87;;;;;;;9.72;55.77;101134.75;5055246;28;20897;-61
2021/04/04 10:57:55;;;;;;;8.03;3.53;;;;;;;9.13;55.84;101122.13;5051932;28;20487;-62
2021/04/04 11:00:22;;;;;;;7.53;4.40;;;;;;;9.13;56.67;101119.47;5044256;28;20485;-60
2021/04/04 11:02:49;;;;;;;12.03;3.83;;;;;;;9.49;54.79;101109.78;5055193;28;20442;-61
2021/04/04 11:05:17;;;;;;;3.80;3.03;;;;;;;9.21;54.78;101104.63;5062857;28;20459;-61
2021/04/04 11:07:44;;;;;;;6.33;3.53;;;;;;;9.26;54.53;101098.09;5064298;28;20534;-62
2021/04/04 11:10:12;;;;;;;7.77;4.17;;;;;;;9.41;54.29;101097.84;5061362;28;20468;-62
2021/04/04 11:12:39;;;;;;;7.27;4.10;;;;;;;9.41;55.31;101091.66;5059508;28;20472;-62
2021/04/04 11:15:08;;;;;;;9.17;4.03;;;;;;;9.08;56.12;101090.47;5061323;28;20456;-62
2021/04/04 11:17:35;;;;;;;10.27;4.50;;;;;;;9.17;55.76;101088.97;5058404;28;20449;-62
2021/04/04 11:20:03;;;;;;;7.47;4.60;;;;;;;9.10;55.59;101098.38;5058336;28;20464;-62
2021/04/04 11:22:30;;;;;;;7.30;4.23;;;;;;;8.45;57.26;101084.22;5057984;28;20460;-58
2021/04/04 11:24:59;;;;;;;6.90;4.53;;;;;;;8.53;57.85;101083.72;5063633;28;20945;-63
2021/04/04 11:27:42;;;;;;;10.33;5.10;;;;;;;9.21;55.96;101083.25;5050101;28;20480;-63
2021/04/04 11:30:14;;;;;;;21.93;8.13;;;;;;;8.93;56.73;101073.75;5064716;28;20528;-62
2021/04/04 11:32:44;;;;;;;13.13;5.03;;;;;;;9.02;56.87;101085.56;5053522;28;20487;-63
2021/04/04 11:35:11;;;;;;;4.43;3.30;;;;;;;8.55;57.79;101087.97;5056738;28;20453;-61
2021/04/04 11:37:40;;;;;;;11.10;3.90;;;;;;;8.34;58.75;101074.28;5057853;28;20491;-61
2021/04/04 11:40:18;;;;;;;10.13;4.50;;;;;;;8.35;58.95;101070.69;5055616;28;20485;-65